Terminal Aerodrome Forecast
Issued by NWS Memphis, TN

Home | Current Version | Previous Version | Text Only | Print | Product List | Glossary On
Versions: 1 2 3 4 5 6 7 8 9 10 11 12 13 14 15 16 17 18 19 20 21 22 23 24 25 26 27
627
FTUS44 KMEG 181724
TAFMEM
TAF
KMEM 181724Z 1818/1918 31006KT P6SM FEW045
     FM190000 VRB02KT P6SM FEW250
     FM191200 20004KT P6SM BKN050=

USA.gov is the U.S. government's official web portal to all federal, state and local government web resources and services.